Dati Storici

Data ora Umidita' aria (%) Temperatura aria (°C) Rad globale (W/m²) Gonioanemometro (°) Tacoanemometro (m/s) Pioggia (mm)
02-11-2012 21:30 93 % 10.514 1.746 12.886 0.146 0
02-11-2012 21:20 93.4 % 10.737 2.618 145.221 0.582 0
02-11-2012 21:10 91.7 % 10.27 1.797 283.634 0.123 0
02-11-2012 21:00 90.3 % 10.098 2.195 160.626 0.23 0
02-11-2012 20:50 90 % 10.464 1.899 207.128 0.001 0
02-11-2012 20:40 89.9 % 10.811 2.143 82.964 0.633 0
02-11-2012 20:30 89 % 10.955 2.066 68.379 -0.001 0
02-11-2012 20:20 88.9 % 11.318 2.04 80.033 0.697 0
02-11-2012 20:10 89.6 % 11.813 1.925 185.976 0.131 0
02-11-2012 20:00 88.8 % 11.531 1.874 213.193 0.406 0
02-11-2012 19:50 87.9 % 11.701 2.066 63.368 1.265 0
02-11-2012 19:40 86.9 % 11.915 1.515 101.526 -0.001 0
02-11-2012 19:30 87.2 % 12.22 1.617 167.633 0.316 0
02-11-2012 19:20 86.9 % 12.43 1.502 186.717 0.836 0
02-11-2012 19:10 86.8 % 12.673 1.694 255.476 0.506 0
02-11-2012 19:00 86.7 % 12.625 1.527 251.74 0.441 0
02-11-2012 18:50 85 % 12.719 1.374 39.142 0.226 0
02-11-2012 18:40 85.7 % 13.277 1.45 162.001 1.172 0
02-11-2012 18:30 85.9 % 13.449 1.335 156.157 0.594 0
02-11-2012 18:20 85.8 % 13.651 1.591 217.406 0.547 0

I dati sono presentati in modo automatico a scopo informativo. In seguito a verifica i dati possono subire modifiche o essere invalidati e non riportati negli archivi definitivi.